createdAt,value
2017-12-12T00:00:48.455Z,970.65
2017-12-12T00:01:48.482Z,970.68
2017-12-12T00:02:48.445Z,970.69
2017-12-12T00:03:48.450Z,970.68
2017-12-12T00:04:48.435Z,970.59
2017-12-12T00:05:48.430Z,970.65
2017-12-12T00:06:48.434Z,970.71
2017-12-12T00:07:48.425Z,970.66
2017-12-12T00:08:48.415Z,970.68
2017-12-12T00:09:48.411Z,970.65
2017-12-12T00:10:48.407Z,970.58
2017-12-12T00:11:48.411Z,970.57
2017-12-12T00:12:48.398Z,970.59
2017-12-12T00:13:48.396Z,970.68
2017-12-12T00:14:48.391Z,970.73
2017-12-12T00:15:48.440Z,970.76
2017-12-12T00:16:48.388Z,970.81
2017-12-12T00:17:48.376Z,970.79
2017-12-12T00:18:48.372Z,970.80
2017-12-12T00:19:48.364Z,970.84
2017-12-12T00:20:48.357Z,970.82
2017-12-12T00:21:48.354Z,970.83
2017-12-12T00:22:48.376Z,970.82
2017-12-12T00:23:48.408Z,970.82
2017-12-12T00:24:48.340Z,970.83
2017-12-12T00:25:48.336Z,970.82
2017-12-12T00:26:48.333Z,970.88
2017-12-12T00:27:48.326Z,970.84
2017-12-12T00:28:48.379Z,970.82
2017-12-12T00:29:48.314Z,970.85
2017-12-12T00:30:48.310Z,970.84
2017-12-12T00:31:48.308Z,970.88
2017-12-12T00:32:48.300Z,970.93
2017-12-12T00:33:48.297Z,970.91
2017-12-12T00:34:48.293Z,970.91
2017-12-12T00:35:48.286Z,970.90
2017-12-12T00:36:48.283Z,970.92
2017-12-12T00:37:48.278Z,970.95
2017-12-12T00:38:48.272Z,970.91
2017-12-12T00:39:48.267Z,970.95
2017-12-12T00:40:48.262Z,970.96
2017-12-12T00:41:48.259Z,970.96
2017-12-12T00:42:48.252Z,970.97
2017-12-12T00:43:48.255Z,970.94
2017-12-12T00:44:48.242Z,970.94
2017-12-12T00:45:48.237Z,970.96
2017-12-12T00:46:48.233Z,970.97
2017-12-12T00:47:48.235Z,970.97
2017-12-12T00:48:48.222Z,971.03
2017-12-12T00:49:48.217Z,971.08
2017-12-12T00:50:48.214Z,971.08
2017-12-12T00:51:48.208Z,971.10
2017-12-12T00:52:48.202Z,971.08
2017-12-12T00:53:48.198Z,971.11
2017-12-12T00:54:48.192Z,971.14
2017-12-12T00:55:48.202Z,971.08
2017-12-12T00:56:48.182Z,971.06
2017-12-12T00:57:48.177Z,971.05
2017-12-12T00:58:48.173Z,971.04
2017-12-12T00:59:48.167Z,971.08
2017-12-12T01:00:48.162Z,971.03
2017-12-12T01:01:48.156Z,971.05
2017-12-12T01:02:48.154Z,971.03
2017-12-12T01:03:48.148Z,971.01
2017-12-12T01:04:48.142Z,971.07
2017-12-12T01:05:48.137Z,971.08
2017-12-12T01:06:48.137Z,971.03
2017-12-12T01:07:48.130Z,971.04
2017-12-12T01:08:48.123Z,971.06
2017-12-12T01:09:48.119Z,971.04
2017-12-12T01:10:48.114Z,971.10
2017-12-12T01:11:48.108Z,971.15
2017-12-12T01:12:48.105Z,971.21
2017-12-12T01:13:48.098Z,971.25
2017-12-12T01:14:48.094Z,971.22
2017-12-12T01:15:48.087Z,971.23
2017-12-12T01:16:48.086Z,971.30
2017-12-12T01:17:48.082Z,971.36
2017-12-12T01:18:48.074Z,971.40
2017-12-12T01:19:48.069Z,971.40
2017-12-12T01:20:48.062Z,971.41
2017-12-12T01:21:48.063Z,971.37
2017-12-12T01:22:48.056Z,971.36
2017-12-12T01:23:48.049Z,971.42
2017-12-12T01:24:48.044Z,971.43
2017-12-12T01:25:48.039Z,971.39
2017-12-12T01:26:48.036Z,971.40
2017-12-12T01:27:48.027Z,971.43
2017-12-12T01:28:48.021Z,971.44
2017-12-12T01:29:48.017Z,971.41
2017-12-12T01:30:48.024Z,971.49
2017-12-12T01:31:48.006Z,971.51
2017-12-12T01:32:48.004Z,971.56
2017-12-12T01:33:47.997Z,971.58
2017-12-12T01:34:47.991Z,971.63
2017-12-12T01:35:47.988Z,971.67
2017-12-12T01:36:47.981Z,971.64
2017-12-12T01:37:47.977Z,971.63
2017-12-12T01:38:48.009Z,971.63
2017-12-12T01:39:47.965Z,971.68
2017-12-12T01:40:47.960Z,971.72
2017-12-12T01:41:47.959Z,971.75
2017-12-12T01:42:47.955Z,971.81
2017-12-12T01:43:47.945Z,971.83
2017-12-12T01:44:47.945Z,971.82
2017-12-12T01:45:47.937Z,971.87
2017-12-12T01:46:47.931Z,971.94
2017-12-12T01:47:47.930Z,971.94
2017-12-12T01:48:47.920Z,971.91
2017-12-12T01:49:47.916Z,971.92
2017-12-12T01:50:47.911Z,971.93
2017-12-12T01:51:47.905Z,971.95
2017-12-12T01:52:47.902Z,971.91
2017-12-12T01:53:47.894Z,971.99
2017-12-12T01:54:47.894Z,972.04
2017-12-12T01:55:47.885Z,972.11
2017-12-12T01:56:47.881Z,972.20
2017-12-12T01:57:47.878Z,972.23
2017-12-12T01:58:47.872Z,972.31
2017-12-12T01:59:47.866Z,972.34
2017-12-12T02:00:47.861Z,972.33
2017-12-12T02:01:47.857Z,972.32
2017-12-12T02:02:47.852Z,972.41
2017-12-12T02:03:47.850Z,972.35
2017-12-12T02:04:47.839Z,972.35
2017-12-12T02:05:47.838Z,972.42
2017-12-12T02:06:47.830Z,972.47
2017-12-12T02:07:47.828Z,972.47
2017-12-12T02:08:47.818Z,972.47
2017-12-12T02:09:47.814Z,972.42
2017-12-12T02:10:47.812Z,972.40
2017-12-12T02:11:47.805Z,972.45
2017-12-12T02:12:47.799Z,972.52
2017-12-12T02:13:47.798Z,972.58
2017-12-12T02:14:47.789Z,972.68
2017-12-12T02:15:47.785Z,972.68
2017-12-12T02:16:47.779Z,972.65
2017-12-12T02:17:47.774Z,972.63
2017-12-12T02:18:47.771Z,972.68
2017-12-12T02:19:47.766Z,972.66
2017-12-12T02:20:47.759Z,972.62
2017-12-12T02:21:47.753Z,972.61
2017-12-12T02:22:47.749Z,972.70
2017-12-12T02:23:47.757Z,972.70
2017-12-12T02:24:47.740Z,972.73
2017-12-12T02:25:47.734Z,972.68
2017-12-12T02:26:47.746Z,972.69
2017-12-12T02:27:47.725Z,972.71
2017-12-12T02:28:47.726Z,972.72
2017-12-12T02:29:47.719Z,972.72
2017-12-12T02:30:47.710Z,972.63
2017-12-12T02:31:47.707Z,972.61
2017-12-12T02:32:47.702Z,972.59
2017-12-12T02:33:47.696Z,972.66
2017-12-12T02:34:47.690Z,972.70
2017-12-12T02:35:47.687Z,972.72
2017-12-12T02:36:47.680Z,972.66
2017-12-12T02:37:47.682Z,972.65
2017-12-12T02:38:47.673Z,972.68
2017-12-12T02:39:47.665Z,972.68
2017-12-12T02:40:47.658Z,972.70
2017-12-12T02:41:47.655Z,972.63
2017-12-12T02:42:47.660Z,972.64
2017-12-12T02:43:47.648Z,972.64
2017-12-12T02:44:47.727Z,972.67
2017-12-12T02:45:47.638Z,972.62
2017-12-12T02:46:47.632Z,972.61
2017-12-12T02:47:47.626Z,972.64
2017-12-12T02:48:47.620Z,972.69
2017-12-12T02:49:47.614Z,972.74
2017-12-12T02:50:47.611Z,972.86
2017-12-12T02:51:47.611Z,972.85
2017-12-12T02:52:47.600Z,972.88
2017-12-12T02:53:47.595Z,972.85
2017-12-12T02:54:47.592Z,972.84
2017-12-12T02:55:47.586Z,972.74
2017-12-12T02:56:47.583Z,972.76
2017-12-12T02:57:47.576Z,972.81
2017-12-12T02:58:47.570Z,972.86
2017-12-12T02:59:47.564Z,972.83
2017-12-12T03:00:47.558Z,972.86
2017-12-12T03:01:47.553Z,972.79
2017-12-12T03:02:47.598Z,972.84
2017-12-12T03:03:47.548Z,972.90
2017-12-12T03:04:47.537Z,972.82
2017-12-12T03:05:47.532Z,972.79
2017-12-12T03:06:47.527Z,972.78
2017-12-12T03:07:47.522Z,972.84
2017-12-12T03:08:47.516Z,972.86
2017-12-12T03:09:47.513Z,972.82
2017-12-12T03:10:47.507Z,972.81
2017-12-12T03:11:47.502Z,972.85
2017-12-12T03:12:47.503Z,972.89
2017-12-12T03:13:47.491Z,972.87
2017-12-12T03:14:47.486Z,972.91
2017-12-12T03:15:47.484Z,972.94
2017-12-12T03:16:47.475Z,972.99
2017-12-12T03:17:47.470Z,973.16
2017-12-12T03:18:47.467Z,973.16
2017-12-12T03:19:47.460Z,973.16
2017-12-12T03:20:47.459Z,973.16
2017-12-12T03:21:47.449Z,973.19
2017-12-12T03:22:47.445Z,973.34
2017-12-12T03:23:47.440Z,973.36
2017-12-12T03:24:47.434Z,973.37
2017-12-12T03:25:47.429Z,973.33
2017-12-12T03:26:47.424Z,973.36
2017-12-12T03:27:47.418Z,973.34
2017-12-12T03:28:47.416Z,973.40
2017-12-12T03:29:47.406Z,973.37
2017-12-12T03:30:47.417Z,973.34
2017-12-12T03:31:47.402Z,973.25
2017-12-12T03:32:47.393Z,973.24
2017-12-12T03:33:47.385Z,973.34
2017-12-12T03:34:47.378Z,973.35
2017-12-12T03:35:47.375Z,973.39
2017-12-12T03:36:47.369Z,973.47
2017-12-12T03:37:47.365Z,973.45
2017-12-12T03:38:47.365Z,973.43
2017-12-12T03:39:47.354Z,973.39
2017-12-12T03:40:47.411Z,973.40
2017-12-12T03:41:47.341Z,973.37
2017-12-12T03:42:47.340Z,973.43
2017-12-12T03:43:47.332Z,973.48
2017-12-12T03:44:47.326Z,973.53
2017-12-12T03:45:47.319Z,973.51
2017-12-12T03:46:47.319Z,973.51
2017-12-12T03:47:47.347Z,973.49
2017-12-12T03:48:47.302Z,973.51
2017-12-12T03:49:47.298Z,973.57
2017-12-12T03:50:47.293Z,973.56
2017-12-12T03:51:47.288Z,973.59
2017-12-12T03:52:47.280Z,973.60
2017-12-12T03:53:47.278Z,973.61
2017-12-12T03:54:47.272Z,973.70
2017-12-12T03:55:47.266Z,973.62
2017-12-12T03:56:47.261Z,973.73
2017-12-12T03:57:47.256Z,973.66
2017-12-12T03:58:47.250Z,973.75
2017-12-12T03:59:47.244Z,973.72
2017-12-12T04:00:47.237Z,973.76
2017-12-12T04:01:47.233Z,973.78
2017-12-12T04:02:47.227Z,973.76
2017-12-12T04:03:47.224Z,973.79
2017-12-12T04:04:47.215Z,973.82
2017-12-12T04:05:47.208Z,973.89
2017-12-12T04:06:47.205Z,973.93
2017-12-12T04:07:47.202Z,973.93
2017-12-12T04:08:47.193Z,973.94
2017-12-12T04:09:47.188Z,973.98
2017-12-12T04:10:47.189Z,973.98
2017-12-12T04:11:47.177Z,974.04
2017-12-12T04:12:47.171Z,974.02
2017-12-12T04:13:47.171Z,974.03
2017-12-12T04:14:47.178Z,974.00
2017-12-12T04:15:47.154Z,973.96
2017-12-12T04:16:47.147Z,974.02
2017-12-12T04:17:47.144Z,974.01
2017-12-12T04:18:47.138Z,974.14
2017-12-12T04:19:47.131Z,974.29
2017-12-12T04:20:47.127Z,974.34
2017-12-12T04:21:47.118Z,974.42
2017-12-12T04:22:47.114Z,974.48
2017-12-12T04:23:47.109Z,974.47
2017-12-12T04:24:47.108Z,974.43
2017-12-12T04:25:47.107Z,974.48
2017-12-12T04:26:47.092Z,974.54
2017-12-12T04:27:47.087Z,974.49
2017-12-12T04:28:47.082Z,974.51
2017-12-12T04:29:47.075Z,974.57
2017-12-12T04:30:47.069Z,974.68
2017-12-12T04:31:47.064Z,974.68
2017-12-12T04:32:47.059Z,974.73
2017-12-12T04:33:47.054Z,974.76
2017-12-12T04:34:47.049Z,974.81
2017-12-12T04:35:47.041Z,974.85
2017-12-12T04:36:47.036Z,974.97
2017-12-12T04:37:47.029Z,975.07
2017-12-12T04:38:47.024Z,975.14
2017-12-12T04:39:47.021Z,975.24
2017-12-12T04:40:47.016Z,975.29
2017-12-12T04:41:47.065Z,975.31
2017-12-12T04:42:47.004Z,975.27
2017-12-12T04:43:46.997Z,975.22
2017-12-12T04:44:46.994Z,975.29
2017-12-12T04:45:46.987Z,975.34
2017-12-12T04:46:46.980Z,975.19
2017-12-12T04:47:46.974Z,975.13
2017-12-12T04:48:46.974Z,975.20
2017-12-12T04:49:46.963Z,975.34
2017-12-12T04:50:46.958Z,975.28
2017-12-12T04:51:46.953Z,975.25
2017-12-12T04:52:46.949Z,975.38
2017-12-12T04:53:46.940Z,975.41
2017-12-12T04:54:46.936Z,975.49
2017-12-12T04:55:46.931Z,975.47
2017-12-12T04:56:46.925Z,975.46
2017-12-12T04:57:46.919Z,975.53
2017-12-12T04:58:46.914Z,975.53
2017-12-12T04:59:46.908Z,975.52
2017-12-12T05:00:46.902Z,975.59
2017-12-12T05:01:46.896Z,975.59
2017-12-12T05:02:46.889Z,975.59
2017-12-12T05:03:46.885Z,975.61
2017-12-12T05:04:46.878Z,975.67
2017-12-12T05:05:46.873Z,975.71
2017-12-12T05:06:46.867Z,975.77
2017-12-12T05:07:46.862Z,975.80
2017-12-12T05:08:46.858Z,975.80
2017-12-12T05:09:46.852Z,975.79
2017-12-12T05:10:46.844Z,975.72
2017-12-12T05:11:46.840Z,975.73
2017-12-12T05:12:46.835Z,975.72
2017-12-12T05:13:46.831Z,975.76
2017-12-12T05:14:46.825Z,975.79
2017-12-12T05:15:46.816Z,975.81
2017-12-12T05:16:46.811Z,975.89
2017-12-12T05:17:46.807Z,975.96
2017-12-12T05:18:46.800Z,976.04
2017-12-12T05:19:46.794Z,976.12
2017-12-12T05:20:46.788Z,976.15
2017-12-12T05:21:46.787Z,976.19
2017-12-12T05:22:46.776Z,976.20
2017-12-12T05:23:46.774Z,976.19
2017-12-12T05:24:46.764Z,976.22
2017-12-12T05:25:46.762Z,976.25
2017-12-12T05:26:46.754Z,976.25
2017-12-12T05:27:46.750Z,976.32
2017-12-12T05:28:46.745Z,976.43
2017-12-12T05:29:46.736Z,976.49
2017-12-12T05:30:46.732Z,976.57
2017-12-12T05:31:46.726Z,976.65
2017-12-12T05:32:46.720Z,976.70
2017-12-12T05:33:46.723Z,976.68
2017-12-12T05:34:46.708Z,976.76
2017-12-12T05:35:46.705Z,976.80
2017-12-12T05:36:46.697Z,976.78
2017-12-12T05:37:46.691Z,976.80
2017-12-12T05:38:46.685Z,976.83
2017-12-12T05:39:46.680Z,976.93
2017-12-12T05:40:46.674Z,976.92
2017-12-12T05:41:46.669Z,976.93
2017-12-12T05:42:46.663Z,976.90
2017-12-12T05:43:46.658Z,976.94
2017-12-12T05:44:46.652Z,976.97
2017-12-12T05:45:46.660Z,976.98
2017-12-12T05:46:46.641Z,977.02
2017-12-12T05:47:46.634Z,977.07
2017-12-12T05:48:46.628Z,977.24
2017-12-12T05:49:46.623Z,977.30
2017-12-12T05:50:46.616Z,977.41
2017-12-12T05:51:46.611Z,977.49
2017-12-12T05:52:46.605Z,977.55
2017-12-12T05:53:46.600Z,977.62
2017-12-12T05:54:46.593Z,977.62
2017-12-12T05:55:46.587Z,977.66
2017-12-12T05:56:46.581Z,977.77
2017-12-12T05:57:46.576Z,977.86
2017-12-12T05:58:46.570Z,977.89
2017-12-12T05:59:46.563Z,977.94
2017-12-12T06:00:46.559Z,977.94
2017-12-12T06:01:46.551Z,977.95
2017-12-12T06:02:46.545Z,977.92
2017-12-12T06:03:46.543Z,977.96
2017-12-12T06:04:46.532Z,977.99
2017-12-12T06:05:46.527Z,978.05
2017-12-12T06:06:46.524Z,978.05
2017-12-12T06:07:46.515Z,978.13
2017-12-12T06:08:46.510Z,978.12
2017-12-12T06:09:46.503Z,978.21
2017-12-12T06:10:46.497Z,978.23
2017-12-12T06:11:46.492Z,978.29
2017-12-12T06:12:46.497Z,978.35
2017-12-12T06:13:46.480Z,978.37
2017-12-12T06:14:46.474Z,978.44
2017-12-12T06:15:46.470Z,978.41
2017-12-12T06:16:46.460Z,978.51
2017-12-12T06:17:46.456Z,978.51
2017-12-12T06:18:46.452Z,978.58
2017-12-12T06:19:46.451Z,978.70
2017-12-12T06:20:46.438Z,978.70
2017-12-12T06:21:46.431Z,978.73
2017-12-12T06:22:46.433Z,978.72
2017-12-12T06:23:46.420Z,978.80
2017-12-12T06:24:46.411Z,978.77
2017-12-12T06:25:46.409Z,978.78
2017-12-12T06:26:46.400Z,978.79
2017-12-12T06:27:46.405Z,978.84
2017-12-12T06:28:46.388Z,978.90
2017-12-12T06:29:46.384Z,978.99
2017-12-12T06:30:46.373Z,979.08
2017-12-12T06:31:46.370Z,979.14
2017-12-12T06:32:46.374Z,979.20
2017-12-12T06:33:46.354Z,979.17
2017-12-12T06:34:46.349Z,979.30
2017-12-12T06:35:46.343Z,979.45
2017-12-12T06:36:46.335Z,979.51
2017-12-12T06:37:46.332Z,979.55
2017-12-12T06:38:46.323Z,979.69
2017-12-12T06:39:46.317Z,979.70
2017-12-12T06:40:46.313Z,979.78
2017-12-12T06:41:46.303Z,979.76
2017-12-12T06:42:46.296Z,979.80
2017-12-12T06:43:46.292Z,979.91
2017-12-12T06:44:46.283Z,979.87
2017-12-12T06:45:46.278Z,979.91
2017-12-12T06:46:46.270Z,980.00
2017-12-12T06:47:46.266Z,980.01
2017-12-12T06:48:46.256Z,980.00
2017-12-12T06:49:46.250Z,980.04
2017-12-12T06:50:46.248Z,980.05
2017-12-12T06:51:46.238Z,980.07
2017-12-12T06:52:46.233Z,980.12
2017-12-12T06:53:46.227Z,980.29
2017-12-12T06:54:46.219Z,980.37
2017-12-12T06:55:46.211Z,980.37
2017-12-12T06:56:46.204Z,980.42
2017-12-12T06:57:46.198Z,980.41
2017-12-12T06:58:46.194Z,980.44
2017-12-12T06:59:46.184Z,980.44
2017-12-12T07:00:46.182Z,980.47
2017-12-12T07:01:46.173Z,980.45
2017-12-12T07:02:46.164Z,980.54
2017-12-12T07:03:46.160Z,980.66
2017-12-12T07:04:46.175Z,980.68
2017-12-12T07:05:46.202Z,980.69
2017-12-12T07:06:46.137Z,980.76
2017-12-12T07:07:46.139Z,980.82
2017-12-12T07:08:46.122Z,980.97
2017-12-12T07:09:46.117Z,980.93
2017-12-12T07:10:46.109Z,981.03
2017-12-12T07:11:46.103Z,981.09
2017-12-12T07:12:46.095Z,981.11
2017-12-12T07:13:46.087Z,981.13
2017-12-12T07:14:46.084Z,981.24
2017-12-12T07:15:46.075Z,981.33
2017-12-12T07:16:46.068Z,981.44
2017-12-12T07:17:46.061Z,981.49
2017-12-12T07:18:46.056Z,981.61
2017-12-12T07:19:46.048Z,981.65
2017-12-12T07:20:46.038Z,981.73
2017-12-12T07:21:46.033Z,981.88
2017-12-12T07:22:46.028Z,981.94
2017-12-12T07:23:46.021Z,981.94
2017-12-12T07:24:46.012Z,982.00
2017-12-12T07:25:46.005Z,982.02
2017-12-12T07:26:46.006Z,982.16
2017-12-12T07:27:45.992Z,982.23
2017-12-12T07:28:45.990Z,982.29
2017-12-12T07:29:45.978Z,982.23
2017-12-12T07:30:46.838Z,982.21
2017-12-12T07:31:46.139Z,982.20
2017-12-12T07:32:45.957Z,982.22
2017-12-12T07:33:46.232Z,982.25
2017-12-12T07:34:45.966Z,982.28
2017-12-12T07:35:45.955Z,982.32
2017-12-12T07:36:45.939Z,982.36
2017-12-12T07:37:45.963Z,982.41
2017-12-12T07:38:45.915Z,982.41
2017-12-12T07:39:46.461Z,982.39
2017-12-12T07:40:45.900Z,982.34
2017-12-12T07:41:45.893Z,982.42
2017-12-12T07:42:45.886Z,982.44
2017-12-12T07:43:45.885Z,982.41
2017-12-12T07:44:45.885Z,982.43
2017-12-12T07:45:45.871Z,982.47
2017-12-12T07:46:46.135Z,982.49
2017-12-12T07:47:46.726Z,982.63
2017-12-12T07:48:45.847Z,982.62
2017-12-12T07:49:45.998Z,982.69
2017-12-12T07:50:45.829Z,982.65
2017-12-12T07:51:45.824Z,982.62
2017-12-12T07:52:45.814Z,982.63
2017-12-12T07:53:45.811Z,982.73
2017-12-12T07:54:45.826Z,982.80
2017-12-12T07:55:45.794Z,982.89
2017-12-12T07:56:45.786Z,982.90
2017-12-12T07:57:45.783Z,982.96
2017-12-12T07:58:46.190Z,982.88
2017-12-12T07:59:45.765Z,982.98
2017-12-12T08:00:45.817Z,983.03
2017-12-12T08:01:45.751Z,983.04
2017-12-12T08:02:45.745Z,983.10
2017-12-12T08:03:45.737Z,983.16
2017-12-12T08:04:45.737Z,983.17
2017-12-12T08:05:45.738Z,983.20
2017-12-12T08:06:45.716Z,983.21
2017-12-12T08:07:45.716Z,983.23
2017-12-12T08:08:45.702Z,983.20
2017-12-12T08:09:45.765Z,983.27
2017-12-12T08:10:45.689Z,983.28
2017-12-12T08:11:45.678Z,983.29
2017-12-12T08:12:45.670Z,983.35
2017-12-12T08:13:45.663Z,983.33
2017-12-12T08:14:45.656Z,983.35
2017-12-12T08:15:45.649Z,983.42
2017-12-12T08:16:45.646Z,983.40
2017-12-12T08:17:45.635Z,983.48
2017-12-12T08:18:45.630Z,983.50
2017-12-12T08:19:45.620Z,983.42
2017-12-12T08:20:45.612Z,983.40
2017-12-12T08:21:45.611Z,983.48
2017-12-12T08:22:45.618Z,983.47
2017-12-12T08:23:45.599Z,983.59
2017-12-12T08:24:45.583Z,983.56
2017-12-12T08:25:45.582Z,983.68
2017-12-12T08:26:45.568Z,983.64
2017-12-12T08:27:45.561Z,983.77
2017-12-12T08:28:45.559Z,983.80
2017-12-12T08:29:45.550Z,983.84
2017-12-12T08:30:45.540Z,983.88
2017-12-12T08:31:45.533Z,984.01
2017-12-12T08:32:45.526Z,983.90
2017-12-12T08:33:45.517Z,983.92
2017-12-12T08:34:45.513Z,983.99
2017-12-12T08:35:45.505Z,984.00
2017-12-12T08:36:45.493Z,984.16
2017-12-12T08:37:45.528Z,984.17
2017-12-12T08:38:45.483Z,984.18
2017-12-12T08:39:45.471Z,984.28
2017-12-12T08:40:45.464Z,984.36
2017-12-12T08:41:45.458Z,984.42
2017-12-12T08:42:45.451Z,984.52
2017-12-12T08:43:45.444Z,984.53
2017-12-12T08:44:45.434Z,984.59
2017-12-12T08:45:45.428Z,984.63
2017-12-12T08:46:45.423Z,984.66
2017-12-12T08:47:45.413Z,984.77
2017-12-12T08:48:45.406Z,984.78
2017-12-12T08:49:45.401Z,984.75
2017-12-12T08:50:45.391Z,984.74
2017-12-12T08:51:45.390Z,984.82
2017-12-12T08:52:45.377Z,984.81
2017-12-12T08:53:45.370Z,984.89
2017-12-12T08:54:45.364Z,984.90
2017-12-12T08:55:45.354Z,984.91
2017-12-12T08:56:45.409Z,984.91
2017-12-12T08:57:45.352Z,984.90
2017-12-12T08:58:45.332Z,984.96
2017-12-12T08:59:45.325Z,984.95
2017-12-12T09:00:45.318Z,985.03
2017-12-12T09:01:45.317Z,985.08
2017-12-12T09:02:45.303Z,985.11
2017-12-12T09:03:45.297Z,985.18
2017-12-12T09:04:45.291Z,985.15
2017-12-12T09:05:45.280Z,985.25
2017-12-12T09:06:45.276Z,985.31
2017-12-12T09:07:45.266Z,985.31
2017-12-12T09:08:45.259Z,985.33
2017-12-12T09:09:45.255Z,985.39
2017-12-12T09:10:45.245Z,985.39
2017-12-12T09:11:45.246Z,985.48
2017-12-12T09:12:45.230Z,985.49
2017-12-12T09:13:45.224Z,985.55
2017-12-12T09:14:45.215Z,985.65
2017-12-12T09:15:45.212Z,985.67
2017-12-12T09:16:45.199Z,985.74
2017-12-12T09:17:45.194Z,985.86
2017-12-12T09:18:45.188Z,985.87
2017-12-12T09:19:45.183Z,985.87
2017-12-12T09:20:45.171Z,985.93
2017-12-12T09:21:45.169Z,985.92
2017-12-12T09:22:45.160Z,985.98
2017-12-12T09:23:45.154Z,986.03
2017-12-12T09:24:45.147Z,986.01
2017-12-12T09:25:45.138Z,986.03
2017-12-12T09:26:45.132Z,986.02
2017-12-12T09:27:45.124Z,986.10
2017-12-12T09:28:45.122Z,986.13
2017-12-12T09:29:45.109Z,986.24
2017-12-12T09:30:45.104Z,986.19
2017-12-12T09:31:45.142Z,986.19
2017-12-12T09:32:45.090Z,986.21
2017-12-12T09:33:45.093Z,986.26
2017-12-12T09:34:45.076Z,986.26
2017-12-12T09:35:45.072Z,986.22
2017-12-12T09:36:45.061Z,986.25
2017-12-12T09:37:45.060Z,986.29
2017-12-12T09:38:45.052Z,986.43
2017-12-12T09:39:45.041Z,986.46
2017-12-12T09:40:45.034Z,986.38
2017-12-12T09:41:45.029Z,986.42
2017-12-12T09:42:45.022Z,986.44
2017-12-12T09:43:45.017Z,986.50
2017-12-12T09:44:45.008Z,986.53
2017-12-12T09:45:45.001Z,986.57
2017-12-12T09:46:44.994Z,986.60
2017-12-12T09:47:44.988Z,986.64
2017-12-12T09:48:44.982Z,986.66
2017-12-12T09:49:44.974Z,986.75
2017-12-12T09:50:44.969Z,986.72
2017-12-12T09:51:44.962Z,986.63
2017-12-12T09:52:44.953Z,986.72
2017-12-12T09:53:44.951Z,986.86
2017-12-12T09:54:44.944Z,986.87
2017-12-12T09:55:44.943Z,986.88
2017-12-12T09:56:44.927Z,986.99
2017-12-12T09:57:44.920Z,986.97
2017-12-12T09:58:44.913Z,987.01
2017-12-12T09:59:44.906Z,986.98
2017-12-12T10:00:44.898Z,986.96
2017-12-12T10:01:44.891Z,987.02
2017-12-12T10:02:44.889Z,986.93
2017-12-12T10:03:44.881Z,986.91
2017-12-12T10:04:44.873Z,986.93
2017-12-12T10:05:44.863Z,986.96
2017-12-12T10:06:44.857Z,987.07
2017-12-12T10:07:44.852Z,987.09
2017-12-12T10:08:44.851Z,987.05
2017-12-12T10:09:44.835Z,987.11
2017-12-12T10:10:44.837Z,987.23
2017-12-12T10:11:44.821Z,987.28
2017-12-12T10:12:44.832Z,987.21
2017-12-12T10:13:44.809Z,987.18
2017-12-12T10:14:44.798Z,987.01
2017-12-12T10:15:44.797Z,987.14
2017-12-12T10:16:44.784Z,987.25
2017-12-12T10:17:44.777Z,987.33
2017-12-12T10:18:44.782Z,987.36
2017-12-12T10:19:44.764Z,987.33
2017-12-12T10:20:44.758Z,987.37
2017-12-12T10:21:44.749Z,987.40
2017-12-12T10:22:44.742Z,987.47
2017-12-12T10:23:44.754Z,987.42
2017-12-12T10:24:44.728Z,987.43
2017-12-12T10:25:44.720Z,987.36
2017-12-12T10:26:44.716Z,987.36
2017-12-12T10:27:44.709Z,987.43
2017-12-12T10:28:44.699Z,987.44
2017-12-12T10:29:44.693Z,987.44
2017-12-12T10:30:44.689Z,987.55
2017-12-12T10:31:44.688Z,987.54
2017-12-12T10:32:44.671Z,987.56
2017-12-12T10:33:44.664Z,987.53
2017-12-12T10:34:44.656Z,987.60
2017-12-12T10:35:44.652Z,987.63
2017-12-12T10:36:44.644Z,987.57
2017-12-12T10:37:44.637Z,987.63
2017-12-12T10:38:44.629Z,987.56
2017-12-12T10:39:44.624Z,987.59
2017-12-12T10:40:44.612Z,987.57
2017-12-12T10:41:44.610Z,987.63
2017-12-12T10:42:44.598Z,987.62
2017-12-12T10:43:44.598Z,987.62
2017-12-12T10:44:44.583Z,987.65
2017-12-12T10:45:44.580Z,987.71
2017-12-12T10:46:44.567Z,987.64
2017-12-12T10:47:44.564Z,987.63
2017-12-12T10:48:44.553Z,987.60
2017-12-12T10:49:44.547Z,987.65
2017-12-12T10:50:44.540Z,987.63
2017-12-12T10:51:44.538Z,987.63
2017-12-12T10:52:44.525Z,987.57
2017-12-12T10:53:44.526Z,987.69
2017-12-12T10:54:44.520Z,987.63
2017-12-12T10:55:44.504Z,987.70
2017-12-12T10:56:44.494Z,987.71
2017-12-12T10:57:44.488Z,987.71
2017-12-12T10:58:44.500Z,987.67
2017-12-12T10:59:44.475Z,987.64
2017-12-12T11:00:44.468Z,987.68
2017-12-12T11:01:44.486Z,987.69
2017-12-12T11:02:44.451Z,987.70
2017-12-12T11:03:44.448Z,987.76
2017-12-12T11:04:44.436Z,987.80
2017-12-12T11:05:44.428Z,987.76
2017-12-12T11:06:44.423Z,987.80
2017-12-12T11:07:44.421Z,987.85
2017-12-12T11:08:44.408Z,987.79
2017-12-12T11:09:44.402Z,987.82
2017-12-12T11:10:44.393Z,987.77
2017-12-12T11:11:44.391Z,987.83
2017-12-12T11:12:44.385Z,987.80
2017-12-12T11:13:44.373Z,987.77
2017-12-12T11:14:44.790Z,987.79
2017-12-12T11:15:44.369Z,987.76
2017-12-12T11:16:44.628Z,987.83
2017-12-12T11:17:44.913Z,987.84
2017-12-12T11:18:44.603Z,987.84
2017-12-12T11:19:44.331Z,987.83
2017-12-12T11:20:44.321Z,987.85
2017-12-12T11:21:44.312Z,987.93
2017-12-12T11:22:44.304Z,987.98
2017-12-12T11:23:44.341Z,988.01
2017-12-12T11:24:44.291Z,988.00
2017-12-12T11:25:44.284Z,988.04
2017-12-12T11:26:44.277Z,988.07
2017-12-12T11:27:44.273Z,988.17
2017-12-12T11:28:44.264Z,988.12
2017-12-12T11:29:44.258Z,988.23
2017-12-12T11:30:44.254Z,988.27
2017-12-12T11:31:44.240Z,988.26
2017-12-12T11:32:44.231Z,988.28
2017-12-12T11:33:44.225Z,988.38
2017-12-12T11:34:44.218Z,988.41
2017-12-12T11:35:44.211Z,988.46
2017-12-12T11:36:44.203Z,988.52
2017-12-12T11:37:44.196Z,988.49
2017-12-12T11:38:44.188Z,988.50
2017-12-12T11:39:44.183Z,988.54
2017-12-12T11:40:44.195Z,988.50
2017-12-12T11:41:44.170Z,988.50
2017-12-12T11:42:44.160Z,988.50
2017-12-12T11:43:44.158Z,988.49
2017-12-12T11:44:44.146Z,988.48
2017-12-12T11:45:44.139Z,988.54
2017-12-12T11:46:44.133Z,988.57
2017-12-12T11:47:44.127Z,988.58
2017-12-12T11:48:44.118Z,988.52
2017-12-12T11:49:44.111Z,988.45
2017-12-12T11:50:44.111Z,988.47
2017-12-12T11:51:44.097Z,988.49
2017-12-12T11:52:44.090Z,988.60
2017-12-12T11:53:44.082Z,988.63
2017-12-12T11:54:44.075Z,988.75
2017-12-12T11:55:44.070Z,988.80
2017-12-12T11:56:44.063Z,988.81
2017-12-12T11:57:44.055Z,988.75
2017-12-12T11:58:44.048Z,988.74
2017-12-12T11:59:44.041Z,988.88
2017-12-12T12:00:44.034Z,988.89
2017-12-12T12:01:44.026Z,988.96
2017-12-12T12:02:44.023Z,989.02
2017-12-12T12:03:44.016Z,989.05
2017-12-12T12:04:44.005Z,989.03
2017-12-12T12:05:43.998Z,988.99
2017-12-12T12:06:43.991Z,989.00
2017-12-12T12:07:43.991Z,988.96
2017-12-12T12:08:43.978Z,988.98
2017-12-12T12:09:43.972Z,988.97
2017-12-12T12:10:43.971Z,988.96
2017-12-12T12:11:43.958Z,988.96
2017-12-12T12:12:43.954Z,988.96
2017-12-12T12:13:43.943Z,989.00
2017-12-12T12:14:43.935Z,989.02
2017-12-12T12:15:43.929Z,989.21
2017-12-12T12:16:43.925Z,989.17
2017-12-12T12:17:44.108Z,989.20
2017-12-12T12:18:43.912Z,989.20
2017-12-12T12:19:43.904Z,989.16
2017-12-12T12:20:43.893Z,989.16
2017-12-12T12:21:43.889Z,989.20
2017-12-12T12:22:43.884Z,989.25
2017-12-12T12:23:46.013Z,989.32
2017-12-12T12:24:43.868Z,989.33
2017-12-12T12:25:43.866Z,989.32
2017-12-12T12:26:43.855Z,989.26
2017-12-12T12:27:43.859Z,989.38
2017-12-12T12:28:43.841Z,989.41